createdAt,value
2022-10-01T00:02:06.819Z,34.45
2022-10-01T00:04:37.587Z,32.33
2022-10-01T00:07:09.764Z,37.33
2022-10-01T00:09:37.395Z,32.25
2022-10-01T00:12:04.681Z,34.78
2022-10-01T00:14:31.996Z,32.45
2022-10-01T00:16:59.310Z,36.63
2022-10-01T00:19:27.356Z,37.67
2022-10-01T00:21:54.508Z,37.85
2022-10-01T00:24:21.728Z,33.45
2022-10-01T00:26:49.129Z,36.30
2022-10-01T00:29:16.294Z,35.33
2022-10-01T00:31:44.049Z,35.75
2022-10-01T00:34:14.079Z,39.83
2022-10-01T00:36:42.530Z,41.15
2022-10-01T00:39:13.078Z,40.55
2022-10-01T00:44:28.582Z,33.67
2022-10-01T00:46:58.903Z,36.63
2022-10-01T00:54:44.053Z,36.83
2022-10-01T00:57:14.569Z,43.95
2022-10-01T00:59:41.948Z,35.78
2022-10-01T01:02:11.209Z,35.53
2022-10-01T01:04:40.557Z,43.03
2022-10-01T01:07:09.400Z,38.65
2022-10-01T01:09:40.634Z,37.03
2022-10-01T01:12:14.918Z,38.13
2022-10-01T01:15:13.197Z,41.65
2022-10-01T01:18:01.357Z,43.38
2022-10-01T01:20:50.345Z,34.88
2022-10-01T01:23:17.332Z,38.17
2022-10-01T01:26:16.967Z,37.15
2022-10-01T01:28:51.000Z,39.70
2022-10-01T01:31:28.326Z,43.95
2022-10-01T01:33:58.158Z,40.10
2022-10-01T01:36:32.682Z,40.88
2022-10-01T01:39:04.658Z,41.08
2022-10-01T01:41:36.029Z,41.80
2022-10-01T01:44:08.931Z,42.22
2022-10-01T01:46:41.810Z,39.03
2022-10-01T01:49:10.017Z,40.13
2022-10-01T01:51:45.861Z,42.78
2022-10-01T01:54:13.131Z,38.20
2022-10-01T01:56:40.240Z,42.58
2022-10-01T01:59:08.939Z,43.80
2022-10-01T02:01:39.794Z,47.42
2022-10-01T02:04:20.171Z,42.35
2022-10-01T02:07:16.524Z,43.40
2022-10-01T02:10:20.300Z,44.13
2022-10-01T02:13:08.743Z,50.70
2022-10-01T02:15:51.062Z,47.70
2022-10-01T02:18:49.119Z,44.88
2022-10-01T02:21:27.922Z,44.08
2022-10-01T02:24:24.317Z,41.42
2022-10-01T02:26:55.729Z,43.15
2022-10-01T02:29:24.297Z,50.00
2022-10-01T02:31:55.865Z,44.20
2022-10-01T02:34:28.202Z,45.00
2022-10-01T02:36:57.448Z,46.42
2022-10-01T02:39:27.899Z,49.78
2022-10-01T02:44:32.553Z,46.40
2022-10-01T02:47:14.779Z,48.92
2022-10-01T02:49:42.100Z,49.88
2022-10-01T02:52:15.095Z,50.55
2022-10-01T02:54:56.089Z,49.70
2022-10-01T02:57:23.619Z,45.08
2022-10-01T02:59:52.048Z,45.58
2022-10-01T03:02:20.144Z,52.40
2022-10-01T03:04:48.579Z,53.38
2022-10-01T03:07:17.146Z,54.97
2022-10-01T03:09:44.641Z,56.47
2022-10-01T03:12:12.099Z,52.42
2022-10-01T03:14:39.776Z,50.25
2022-10-01T03:17:08.187Z,51.35
2022-10-01T03:19:35.333Z,54.67
2022-10-01T03:22:02.878Z,56.88
2022-10-01T03:24:30.203Z,55.20
2022-10-01T03:26:57.939Z,50.08
2022-10-01T03:29:25.849Z,53.90
2022-10-01T03:31:53.912Z,53.00
2022-10-01T03:34:21.588Z,50.50
2022-10-01T03:36:49.191Z,51.08
2022-10-01T03:39:17.353Z,51.53
2022-10-01T03:41:45.248Z,52.28
2022-10-01T03:44:12.595Z,52.72
2022-10-01T03:46:39.763Z,51.65
2022-10-01T03:49:07.108Z,49.83
2022-10-01T03:51:36.498Z,51.90
2022-10-01T03:54:05.995Z,52.08
2022-10-01T03:56:33.739Z,55.17
2022-10-01T03:59:01.259Z,58.00
2022-10-01T04:01:28.454Z,48.40
2022-10-01T04:03:55.664Z,52.33
2022-10-01T04:06:22.865Z,63.05
2022-10-01T04:08:50.028Z,52.72
2022-10-01T04:11:17.270Z,56.47
2022-10-01T04:13:44.511Z,57.53
2022-10-01T04:16:11.706Z,51.55
2022-10-01T04:18:38.871Z,59.35
2022-10-01T04:21:06.132Z,55.38
2022-10-01T04:23:33.398Z,56.83
2022-10-01T04:26:02.720Z,55.47
2022-10-01T04:28:31.255Z,51.60
2022-10-01T04:31:16.955Z,57.67
2022-10-01T04:33:44.229Z,50.67
2022-10-01T04:36:11.845Z,55.72
2022-10-01T04:38:39.032Z,57.65
2022-10-01T04:41:06.709Z,58.65
2022-10-01T04:43:33.890Z,56.30
2022-10-01T04:46:01.122Z,58.72
2022-10-01T04:48:28.327Z,61.80
2022-10-01T04:50:55.499Z,60.30
2022-10-01T04:53:22.869Z,63.05
2022-10-01T04:55:49.920Z,61.08
2022-10-01T04:58:18.874Z,61.85
2022-10-01T05:00:46.216Z,62.03
2022-10-01T05:03:13.411Z,51.75
2022-10-01T05:05:41.024Z,59.63
2022-10-01T05:08:08.358Z,60.10
2022-10-01T05:10:35.769Z,60.78
2022-10-01T05:13:03.477Z,58.35
2022-10-01T05:15:31.405Z,62.60
2022-10-01T05:17:58.738Z,59.60
2022-10-01T05:20:28.378Z,60.40
2022-10-01T05:22:56.890Z,57.22
2022-10-01T05:25:24.418Z,57.50
2022-10-01T05:27:51.884Z,59.38
2022-10-01T05:30:24.407Z,64.22
2022-10-01T05:32:56.768Z,59.45
2022-10-01T05:35:24.389Z,58.85
2022-10-01T05:38:00.442Z,59.97
2022-10-01T05:40:28.841Z,59.80
2022-10-01T05:42:58.739Z,61.00
2022-10-01T05:45:28.089Z,62.97
2022-10-01T05:48:04.031Z,67.73
2022-10-01T05:50:33.987Z,59.35
2022-10-01T05:53:02.408Z,56.65
2022-10-01T05:55:34.931Z,59.55
2022-10-01T05:58:14.592Z,61.55
2022-10-01T06:00:43.170Z,64.78
2022-10-01T06:03:13.336Z,59.35
2022-10-01T06:05:40.583Z,76.20
2022-10-01T06:08:09.946Z,65.55
2022-10-01T06:10:37.577Z,66.47
2022-10-01T06:13:06.031Z,65.13
2022-10-01T06:15:37.769Z,61.75
2022-10-01T06:18:09.742Z,70.55
2022-10-01T06:20:37.799Z,63.88
2022-10-01T06:23:07.789Z,59.03
2022-10-01T06:25:36.612Z,68.80
2022-10-01T06:28:06.220Z,62.72
2022-10-01T06:30:36.469Z,56.40
2022-10-01T06:33:07.398Z,84.13
2022-10-01T06:35:35.780Z,74.20
2022-10-01T06:38:03.279Z,70.28
2022-10-01T06:40:31.545Z,51.50
2022-10-01T06:42:59.400Z,57.20
2022-10-01T06:45:28.577Z,54.53
2022-10-01T06:48:03.212Z,54.63
2022-10-01T06:50:31.966Z,84.75
2022-10-01T06:52:59.911Z,55.85
2022-10-01T06:55:30.102Z,53.53
2022-10-01T06:57:58.948Z,66.20
2022-10-01T07:00:28.747Z,53.15
2022-10-01T07:02:56.353Z,56.13
2022-10-01T07:05:24.807Z,51.45
2022-10-01T07:07:52.431Z,59.42
2022-10-01T07:10:21.477Z,53.38
2022-10-01T07:12:49.279Z,51.65
2022-10-01T07:15:18.631Z,54.83
2022-10-01T07:17:49.218Z,50.08
2022-10-01T07:20:18.544Z,50.92
2022-10-01T07:22:47.438Z,49.45
2022-10-01T07:25:15.214Z,56.80
2022-10-01T07:27:42.523Z,47.72
2022-10-01T07:30:10.299Z,54.70
2022-10-01T07:32:37.597Z,51.53
2022-10-01T07:35:06.298Z,51.03
2022-10-01T07:37:33.459Z,48.58
2022-10-01T07:40:05.271Z,52.85
2022-10-01T07:42:35.777Z,49.60
2022-10-01T07:45:06.771Z,47.75
2022-10-01T07:47:34.142Z,44.95
2022-10-01T07:50:01.711Z,45.45
2022-10-01T07:52:29.148Z,43.38
2022-10-01T07:54:56.350Z,41.22
2022-10-01T07:57:23.568Z,40.13
2022-10-01T07:59:55.513Z,40.92
2022-10-01T08:02:23.378Z,80.72
2022-10-01T08:05:09.199Z,65.25
2022-10-01T08:07:37.050Z,37.20
2022-10-01T08:10:04.979Z,89.60
2022-10-01T08:12:32.268Z,44.00
2022-10-01T08:14:59.487Z,54.17
2022-10-01T08:17:29.441Z,35.80
2022-10-01T08:19:57.184Z,33.53
2022-10-01T08:22:24.420Z,34.22
2022-10-01T08:24:51.578Z,31.58
2022-10-01T08:27:20.059Z,30.30
2022-10-01T08:29:47.943Z,29.60
2022-10-01T08:32:15.203Z,32.63
2022-10-01T08:34:42.638Z,28.73
2022-10-01T08:37:09.751Z,30.83
2022-10-01T08:39:37.589Z,27.77
2022-10-01T08:42:36.791Z,34.55
2022-10-01T08:45:11.908Z,28.90
2022-10-01T08:47:43.995Z,28.77
2022-10-01T08:50:22.910Z,28.60
2022-10-01T08:52:58.382Z,30.48
2022-10-01T08:55:29.348Z,27.10
2022-10-01T08:58:02.767Z,27.40
2022-10-01T09:00:33.048Z,26.40
2022-10-01T09:03:06.579Z,24.08
2022-10-01T09:05:55.601Z,24.77
2022-10-01T09:08:43.958Z,22.15
2022-10-01T09:11:25.411Z,24.63
2022-10-01T09:14:14.550Z,24.23
2022-10-01T09:16:47.867Z,26.60
2022-10-01T09:19:14.947Z,21.90
2022-10-01T09:22:03.709Z,24.00
2022-10-01T09:24:44.273Z,22.02
2022-10-01T09:27:17.492Z,23.63
2022-10-01T09:30:01.804Z,19.25
2022-10-01T09:33:01.718Z,21.65
2022-10-01T09:35:49.410Z,18.25
2022-10-01T09:38:28.501Z,17.25
2022-10-01T09:40:57.792Z,17.35
2022-10-01T09:43:29.485Z,16.95
2022-10-01T09:45:57.129Z,15.80
2022-10-01T09:48:39.259Z,18.20
2022-10-01T09:51:40.670Z,16.98
2022-10-01T09:54:17.507Z,16.15
2022-10-01T09:56:50.811Z,15.15
2022-10-01T09:59:22.791Z,17.27
2022-10-01T10:01:57.271Z,18.05
2022-10-01T10:04:24.737Z,16.70
2022-10-01T10:06:59.898Z,14.70
2022-10-01T10:09:31.189Z,20.40
2022-10-01T10:11:59.933Z,20.33
2022-10-01T10:14:34.337Z,19.67
2022-10-01T10:17:13.621Z,18.35
2022-10-01T10:19:41.698Z,20.50
2022-10-01T10:22:23.651Z,20.77
2022-10-01T10:24:52.818Z,22.27
2022-10-01T10:27:30.988Z,20.50
2022-10-01T10:30:17.014Z,17.83
2022-10-01T10:32:47.484Z,20.98
2022-10-01T10:35:20.702Z,22.05
2022-10-01T10:37:51.918Z,21.77
2022-10-01T10:40:27.000Z,22.17
2022-10-01T10:42:59.220Z,21.33
2022-10-01T10:45:33.851Z,19.15
2022-10-01T10:48:04.118Z,21.20
2022-10-01T10:50:38.886Z,19.63
2022-10-01T10:53:26.700Z,18.40
2022-10-01T10:55:56.888Z,18.83
2022-10-01T10:58:33.611Z,18.92
2022-10-01T11:01:13.396Z,16.52
2022-10-01T11:03:56.430Z,18.33
2022-10-01T11:06:24.087Z,18.15
2022-10-01T11:09:00.852Z,18.95
2022-10-01T11:11:34.460Z,19.33
2022-10-01T11:14:20.144Z,18.35
2022-10-01T11:17:14.765Z,18.45
2022-10-01T11:20:21.025Z,17.10
2022-10-01T11:22:54.479Z,18.90
2022-10-01T11:26:11.320Z,18.15
2022-10-01T11:28:57.278Z,18.88
2022-10-01T11:31:32.192Z,18.48
2022-10-01T11:34:19.428Z,17.50
2022-10-01T11:37:08.160Z,19.88
2022-10-01T11:39:38.310Z,17.95
2022-10-01T11:42:32.079Z,23.40
2022-10-01T11:45:07.008Z,17.67
2022-10-01T11:47:42.067Z,15.10
2022-10-01T11:50:17.499Z,28.23
2022-10-01T11:52:52.944Z,21.58
2022-10-01T11:55:55.254Z,27.65
2022-10-01T11:58:54.581Z,27.67
2022-10-01T12:01:24.570Z,24.55
2022-10-01T12:03:54.929Z,25.17
2022-10-01T12:09:21.730Z,24.63
2022-10-01T12:11:59.038Z,25.33
2022-10-01T12:14:33.083Z,25.50
2022-10-01T12:17:32.959Z,26.80
2022-10-01T12:20:04.491Z,25.08
2022-10-01T12:22:35.993Z,26.63
2022-10-01T12:25:03.177Z,29.48
2022-10-01T12:27:57.211Z,24.90
2022-10-01T12:30:31.938Z,28.95
2022-10-01T12:33:02.218Z,25.23
2022-10-01T12:35:47.842Z,25.02
2022-10-01T12:38:26.712Z,26.23
2022-10-01T12:41:31.553Z,25.85
2022-10-01T12:44:38.359Z,26.30
2022-10-01T12:47:28.770Z,28.40
2022-10-01T12:53:00.426Z,27.45
2022-10-01T12:55:51.307Z,25.15
2022-10-01T12:58:30.092Z,27.65
2022-10-01T13:01:02.779Z,26.30
2022-10-01T13:03:46.358Z,22.50
2022-10-01T13:06:27.424Z,24.27
2022-10-01T13:09:00.685Z,24.33
2022-10-01T13:11:43.918Z,22.05
2022-10-01T13:14:19.244Z,21.58
2022-10-01T13:16:56.890Z,20.77
2022-10-01T13:19:44.958Z,22.35
2022-10-01T13:22:19.657Z,26.10
2022-10-01T13:25:22.868Z,22.33
2022-10-01T13:28:09.844Z,23.52
2022-10-01T13:31:15.132Z,25.92
2022-10-01T13:33:54.329Z,24.70
2022-10-01T13:36:30.811Z,23.38
2022-10-01T13:38:58.133Z,24.20
2022-10-01T13:41:34.119Z,25.77
2022-10-01T13:44:15.132Z,23.85
2022-10-01T13:46:55.913Z,22.58
2022-10-01T13:49:28.939Z,27.73
2022-10-01T13:51:57.371Z,23.92
2022-10-01T13:54:30.498Z,28.75
2022-10-01T13:57:11.323Z,27.40
2022-10-01T13:59:39.350Z,26.52
2022-10-01T14:02:43.474Z,23.60
2022-10-01T14:05:36.703Z,25.58
2022-10-01T14:08:11.768Z,28.17
2022-10-01T14:11:18.318Z,29.17
2022-10-01T14:14:07.306Z,23.92
2022-10-01T14:16:46.903Z,25.27
2022-10-01T14:19:22.328Z,23.30
2022-10-01T14:22:17.773Z,22.90
2022-10-01T14:25:05.999Z,28.27
2022-10-01T14:27:57.363Z,25.65
2022-10-01T14:30:34.642Z,22.75
2022-10-01T14:33:13.452Z,25.63
2022-10-01T14:36:02.594Z,28.73
2022-10-01T14:38:31.286Z,26.88
2022-10-01T14:40:58.478Z,26.77
2022-10-01T14:43:28.643Z,29.88
2022-10-01T14:45:59.928Z,27.10
2022-10-01T14:48:29.564Z,26.85
2022-10-01T14:51:00.093Z,27.17
2022-10-01T14:53:29.216Z,26.55
2022-10-01T14:56:17.347Z,31.20
2022-10-01T14:58:48.415Z,27.15
2022-10-01T15:01:24.234Z,30.63
2022-10-01T15:03:52.803Z,27.77
2022-10-01T15:06:27.832Z,25.67
2022-10-01T15:08:56.537Z,27.33
2022-10-01T15:11:27.479Z,28.27
2022-10-01T15:14:07.083Z,26.77
2022-10-01T15:16:36.677Z,27.02
2022-10-01T15:19:09.634Z,30.48
2022-10-01T15:21:50.442Z,31.05
2022-10-01T15:24:20.534Z,27.48
2022-10-01T15:26:49.759Z,31.55
2022-10-01T15:29:17.993Z,29.67
2022-10-01T15:31:49.212Z,28.83
2022-10-01T15:34:19.579Z,31.65
2022-10-01T15:36:48.879Z,28.83
2022-10-01T15:39:26.930Z,29.50
2022-10-01T15:41:55.747Z,35.58
2022-10-01T15:44:34.374Z,44.08
2022-10-01T15:47:27.401Z,41.03
2022-10-01T15:50:10.095Z,48.60
2022-10-01T15:53:04.147Z,35.17
2022-10-01T15:55:48.927Z,43.83
2022-10-01T15:58:19.450Z,35.78
2022-10-01T16:01:06.889Z,17.55
2022-10-01T16:03:37.771Z,10.68
2022-10-01T16:06:15.731Z,8.15
2022-10-01T16:09:11.480Z,7.93
2022-10-01T16:11:57.401Z,8.32
2022-10-01T16:14:31.954Z,6.60
2022-10-01T16:17:17.750Z,7.85
2022-10-01T16:19:59.446Z,3.90
2022-10-01T16:22:32.130Z,8.07
2022-10-01T16:25:28.186Z,5.03
2022-10-01T16:28:01.255Z,7.07
2022-10-01T16:30:32.359Z,8.35
2022-10-01T16:33:02.679Z,7.00
2022-10-01T16:38:00.357Z,5.97
2022-10-01T16:40:31.186Z,5.35
2022-10-01T16:43:00.548Z,5.75
2022-10-01T16:45:34.472Z,5.85
2022-10-01T16:48:02.765Z,5.85
2022-10-01T16:50:30.275Z,7.78
2022-10-01T16:53:01.450Z,8.07
2022-10-01T16:55:32.767Z,6.65
2022-10-01T16:57:59.882Z,6.50
2022-10-01T17:00:28.303Z,8.63
2022-10-01T17:02:56.672Z,8.45
2022-10-01T17:05:23.867Z,9.52
2022-10-01T17:07:52.357Z,7.95
2022-10-01T17:10:20.745Z,6.95
2022-10-01T17:12:48.083Z,9.63
2022-10-01T17:15:26.570Z,8.70
2022-10-01T17:17:55.248Z,7.93
2022-10-01T17:20:23.504Z,8.40
2022-10-01T17:22:51.008Z,8.43
2022-10-01T17:25:23.634Z,8.60
2022-10-01T17:27:51.349Z,8.00
2022-10-01T17:30:18.882Z,8.70
2022-10-01T17:32:46.961Z,7.63
2022-10-01T17:35:15.570Z,9.48
2022-10-01T17:37:43.346Z,9.25
2022-10-01T17:40:11.302Z,8.27
2022-10-01T17:42:38.849Z,11.40
2022-10-01T17:45:09.457Z,9.27
2022-10-01T17:47:37.177Z,11.45
2022-10-01T17:50:04.742Z,12.88
2022-10-01T17:52:32.897Z,12.75
2022-10-01T17:55:00.220Z,13.07
2022-10-01T17:57:27.397Z,13.82
2022-10-01T17:59:54.699Z,13.90
2022-10-01T18:02:41.033Z,13.73
2022-10-01T18:05:09.878Z,12.10
2022-10-01T18:07:37.663Z,13.25
2022-10-01T18:10:06.579Z,11.63
2022-10-01T18:12:34.584Z,11.07
2022-10-01T18:15:02.221Z,11.65
2022-10-01T18:17:32.179Z,10.82
2022-10-01T18:19:59.601Z,8.95
2022-10-01T18:22:27.659Z,9.88
2022-10-01T18:24:55.008Z,9.38
2022-10-01T18:27:22.365Z,10.13
2022-10-01T18:29:49.712Z,10.63
2022-10-01T18:32:24.197Z,11.20
2022-10-01T18:34:54.797Z,9.38
2022-10-01T18:37:24.731Z,12.40
2022-10-01T18:40:15.647Z,11.18
2022-10-01T18:43:00.290Z,9.45
2022-10-01T18:45:43.105Z,11.07
2022-10-01T18:48:37.144Z,12.52
2022-10-01T18:51:26.983Z,13.32
2022-10-01T18:54:09.395Z,10.85
2022-10-01T18:56:39.350Z,9.95
2022-10-01T18:59:28.544Z,13.40
2022-10-01T19:01:55.776Z,12.15
2022-10-01T19:04:44.669Z,13.43
2022-10-01T19:07:30.343Z,12.20
2022-10-01T19:10:00.680Z,13.25
2022-10-01T19:12:54.055Z,14.20
2022-10-01T19:15:45.376Z,13.15
2022-10-01T19:18:31.130Z,13.07
2022-10-01T19:21:32.436Z,11.00
2022-10-01T19:24:18.422Z,12.02
2022-10-01T19:26:50.663Z,10.90
2022-10-01T19:29:55.381Z,11.30
2022-10-01T19:32:26.254Z,12.23
2022-10-01T19:35:03.562Z,13.18
2022-10-01T19:37:38.605Z,12.30
2022-10-01T19:40:28.493Z,11.90
2022-10-01T19:43:01.861Z,11.13
2022-10-01T19:46:01.171Z,10.88
2022-10-01T19:48:44.401Z,11.85
2022-10-01T19:51:13.632Z,12.00
2022-10-01T19:53:48.063Z,13.45
2022-10-01T19:56:27.541Z,11.80
2022-10-01T19:58:54.989Z,13.67
2022-10-01T20:01:28.328Z,12.40
2022-10-01T20:04:02.702Z,16.17
2022-10-01T20:06:30.027Z,11.30
2022-10-01T20:09:09.011Z,13.50
2022-10-01T20:11:38.661Z,11.10
2022-10-01T20:14:44.800Z,12.63
2022-10-01T20:17:39.981Z,11.75
2022-10-01T20:20:33.291Z,13.05
2022-10-01T20:23:30.525Z,11.07
2022-10-01T20:26:23.852Z,12.35
2022-10-01T20:29:11.141Z,11.82
2022-10-01T20:32:27.244Z,14.57
2022-10-01T20:35:19.113Z,12.55
2022-10-01T20:37:52.975Z,13.40
2022-10-01T20:40:25.352Z,14.05
2022-10-01T20:43:17.633Z,12.60
2022-10-01T20:45:49.149Z,15.55
2022-10-01T20:48:24.536Z,14.75
2022-10-01T20:51:01.798Z,12.80
2022-10-01T20:53:40.654Z,12.73
2022-10-01T20:56:33.108Z,14.90
2022-10-01T20:59:21.737Z,15.52
2022-10-01T21:02:30.685Z,14.35
2022-10-01T21:05:14.700Z,13.65
2022-10-01T21:08:04.576Z,11.82
2022-10-01T21:10:51.333Z,14.35
2022-10-01T21:13:30.551Z,16.27
2022-10-01T21:16:41.544Z,13.60
2022-10-01T21:19:09.155Z,12.70
2022-10-01T21:21:45.100Z,12.85
2022-10-01T21:24:49.431Z,14.50
2022-10-01T21:27:50.172Z,12.07
2022-10-01T21:30:19.864Z,12.18
2022-10-01T21:33:09.299Z,11.75
2022-10-01T21:36:19.755Z,13.60
2022-10-01T21:41:48.543Z,11.30
2022-10-01T21:44:53.304Z,12.35
2022-10-01T21:47:23.189Z,9.15
2022-10-01T21:49:50.420Z,11.57
2022-10-01T21:52:26.764Z,11.68
2022-10-01T21:55:00.740Z,13.40
2022-10-01T21:57:30.784Z,12.10
2022-10-01T22:00:12.971Z,11.05
2022-10-01T22:03:00.384Z,17.20
2022-10-01T22:05:38.320Z,12.23
2022-10-01T22:08:15.586Z,13.00
2022-10-01T22:10:59.431Z,12.10
2022-10-01T22:13:37.380Z,11.75
2022-10-01T22:16:10.562Z,13.82
2022-10-01T22:18:45.573Z,10.25
2022-10-01T22:21:17.581Z,12.63
2022-10-01T22:23:52.019Z,10.77
2022-10-01T22:26:23.543Z,11.57
2022-10-01T22:28:54.182Z,9.20
2022-10-01T22:31:33.439Z,9.38
2022-10-01T22:34:06.725Z,11.27
2022-10-01T22:36:45.098Z,10.68
2022-10-01T22:39:20.503Z,11.10
2022-10-01T22:41:53.136Z,10.25
2022-10-01T22:44:22.704Z,10.35
2022-10-01T22:47:33.411Z,10.67
2022-10-01T22:50:30.514Z,9.18
2022-10-01T22:53:18.381Z,12.95
2022-10-01T22:55:57.537Z,12.10
2022-10-01T22:58:43.171Z,11.77
2022-10-01T23:01:45.028Z,12.85
2022-10-01T23:04:31.212Z,11.70
2022-10-01T23:07:54.163Z,12.40
2022-10-01T23:10:23.943Z,10.68
2022-10-01T23:13:09.373Z,10.60
2022-10-01T23:15:55.013Z,9.35
2022-10-01T23:18:47.419Z,10.13
2022-10-01T23:21:45.016Z,11.35
2022-10-01T23:24:33.580Z,12.65
2022-10-01T23:27:03.663Z,9.15
2022-10-01T23:29:59.375Z,9.75
2022-10-01T23:32:57.899Z,9.93
2022-10-01T23:35:48.371Z,9.18
2022-10-01T23:41:02.341Z,9.98
2022-10-01T23:43:47.061Z,8.10
2022-10-01T23:46:26.140Z,8.18
2022-10-01T23:49:00.084Z,8.18
2022-10-01T23:51:34.692Z,8.30
2022-10-01T23:54:30.478Z,6.60
2022-10-01T23:57:07.133Z,10.63
2022-10-01T23:59:39.493Z,7.00
